Hyde Park, Pennsylvania
Current Conditions -  °F | °C
As of 8:15 AM on Thursday 23 Oct 2014 (Local Time) from KBTP Reporting Station
Overcast Overcast  
Wind Chill: 46°   Ceiling: 2100
Heat Index: 46°   Visibility: 10mi
Dew Point: 39°   Wind: 3mph
Humidity: 76%   Direction: 300°WNW
Pressure: 30.14"   Gusts: NA
Location:  40.63°N, 79.59°W
Report Text: KBTP 231215Z AUTO 30003KT 10SM OVC021 08/04 A3014 RMK AO1
Loading
Personal Weather Stations






























Interactive Weather Map
Tropical Storm Tracking
New forecast layout! Learn more

10-Day Weather Forecast

Advertisements
Track Severe Weather on mobile